createdAt,value
2018-09-28T00:02:15.250Z,6.30
2018-09-28T00:04:43.217Z,6.30
2018-09-28T00:07:11.214Z,6.30
2018-09-28T00:09:39.149Z,6.30
2018-09-28T00:12:07.223Z,6.30
2018-09-28T00:14:35.307Z,6.30
2018-09-28T00:17:03.329Z,6.30
2018-09-28T00:19:31.310Z,6.30
2018-09-28T00:21:59.288Z,6.30
2018-09-28T00:24:27.168Z,6.30
2018-09-28T00:26:55.113Z,6.30
2018-09-28T00:29:23.053Z,6.20
2018-09-28T00:31:51.168Z,6.20
2018-09-28T00:34:19.261Z,6.20
2018-09-28T00:36:47.215Z,6.20
2018-09-28T00:39:15.175Z,6.20
2018-09-28T00:41:43.164Z,6.20
2018-09-28T00:44:11.156Z,6.10
2018-09-28T00:46:39.094Z,6.10
2018-09-28T00:49:07.092Z,6.00
2018-09-28T00:51:35.117Z,6.10
2018-09-28T00:54:03.129Z,6.10
2018-09-28T00:56:37.665Z,6.10
2018-09-28T00:59:05.679Z,6.10
2018-09-28T01:01:33.800Z,6.10
2018-09-28T01:04:01.766Z,6.10
2018-09-28T01:06:29.711Z,6.10
2018-09-28T01:08:57.645Z,6.10
2018-09-28T01:11:25.655Z,6.10
2018-09-28T01:13:53.555Z,6.10
2018-09-28T01:16:21.670Z,6.20
2018-09-28T01:18:49.593Z,6.20
2018-09-28T01:21:17.555Z,6.20
2018-09-28T01:23:45.503Z,6.20
2018-09-28T01:26:13.483Z,6.30
2018-09-28T01:28:41.510Z,6.20
2018-09-28T01:31:09.488Z,6.20
2018-09-28T01:33:37.457Z,6.20
2018-09-28T01:36:05.449Z,6.20
2018-09-28T01:38:33.601Z,6.20
2018-09-28T01:41:01.704Z,6.10
2018-09-28T01:43:29.795Z,6.10
2018-09-28T01:45:57.827Z,6.10
2018-09-28T01:48:25.818Z,6.10
2018-09-28T01:50:53.734Z,6.10
2018-09-28T01:53:21.632Z,6.10
2018-09-28T01:55:49.569Z,6.20
2018-09-28T01:58:17.521Z,6.10
2018-09-28T02:00:45.484Z,6.10
2018-09-28T02:03:13.367Z,6.10
2018-09-28T02:05:41.262Z,6.10
2018-09-28T02:08:09.186Z,6.10
2018-09-28T02:10:37.062Z,6.10
2018-09-28T02:13:05.067Z,6.00
2018-09-28T02:15:33.038Z,6.10
2018-09-28T02:18:01.018Z,6.00
2018-09-28T02:20:28.939Z,6.00
2018-09-28T02:22:56.842Z,6.10
2018-09-28T02:25:24.842Z,6.00
2018-09-28T02:27:52.815Z,6.00
2018-09-28T02:30:20.911Z,6.10
2018-09-28T02:32:48.850Z,6.10
2018-09-28T02:35:17.014Z,6.10
2018-09-28T02:37:45.038Z,6.10
2018-09-28T02:40:13.300Z,6.20
2018-09-28T02:42:41.367Z,6.10
2018-09-28T02:45:09.273Z,6.10
2018-09-28T02:47:37.319Z,6.10
2018-09-28T02:50:05.412Z,6.10
2018-09-28T02:52:33.604Z,6.10
2018-09-28T02:55:01.635Z,6.10
2018-09-28T02:57:29.589Z,6.10
2018-09-28T02:59:57.505Z,6.10
2018-09-28T03:02:25.661Z,6.10
2018-09-28T03:04:53.599Z,6.00
2018-09-28T03:07:21.507Z,6.00
2018-09-28T03:09:49.484Z,5.90
2018-09-28T03:12:17.433Z,5.90
2018-09-28T03:14:45.368Z,5.90
2018-09-28T03:17:13.360Z,5.80
2018-09-28T03:19:41.378Z,5.70
2018-09-28T03:22:09.449Z,5.80
2018-09-28T03:24:37.395Z,5.70
2018-09-28T03:27:05.363Z,5.70
2018-09-28T03:29:33.349Z,5.60
2018-09-28T03:32:01.292Z,5.60
2018-09-28T03:34:29.287Z,5.60
2018-09-28T03:36:57.288Z,5.60
2018-09-28T03:39:25.346Z,5.60
2018-09-28T03:41:53.330Z,5.70
2018-09-28T03:44:21.802Z,5.70
2018-09-28T03:46:49.976Z,5.70
2018-09-28T03:49:17.924Z,5.70
2018-09-28T03:51:45.869Z,5.70
2018-09-28T03:54:13.824Z,5.70
2018-09-28T03:56:41.736Z,5.70
2018-09-28T03:59:09.697Z,5.70
2018-09-28T04:01:37.681Z,5.80
2018-09-28T04:04:05.599Z,5.80
2018-09-28T04:06:33.614Z,5.80
2018-09-28T04:09:01.670Z,5.80
2018-09-28T04:11:29.690Z,5.80
2018-09-28T04:13:57.652Z,5.80
2018-09-28T04:16:25.706Z,5.80
2018-09-28T04:18:53.791Z,5.80
2018-09-28T04:21:21.754Z,5.80
2018-09-28T04:23:49.736Z,5.80
2018-09-28T04:26:17.625Z,5.70
2018-09-28T04:28:45.546Z,5.70
2018-09-28T04:31:13.461Z,5.70
2018-09-28T04:33:41.560Z,5.70
2018-09-28T04:36:09.642Z,5.70
2018-09-28T04:38:38.057Z,5.70
2018-09-28T04:41:06.120Z,5.70
2018-09-28T04:43:34.301Z,5.70
2018-09-28T04:46:02.346Z,5.70
2018-09-28T04:48:30.319Z,5.70
2018-09-28T04:50:58.355Z,5.70
2018-09-28T04:53:26.309Z,5.70
2018-09-28T04:55:54.341Z,5.70
2018-09-28T04:58:22.331Z,5.70
2018-09-28T05:00:50.374Z,5.70
2018-09-28T05:03:18.381Z,5.70
2018-09-28T05:05:46.382Z,5.70
2018-09-28T05:08:14.462Z,5.70
2018-09-28T05:10:42.586Z,5.70
2018-09-28T05:13:10.645Z,5.70
2018-09-28T05:15:38.757Z,5.80
2018-09-28T05:18:06.721Z,5.80
2018-09-28T05:20:34.907Z,5.80
2018-09-28T05:23:02.963Z,5.90
2018-09-28T05:25:30.965Z,6.00
2018-09-28T05:27:58.951Z,6.10
2018-09-28T05:30:27.157Z,6.20
2018-09-28T05:32:55.370Z,6.30
2018-09-28T05:35:23.502Z,6.50
2018-09-28T05:37:51.572Z,6.60
2018-09-28T05:40:19.650Z,6.60
2018-09-28T05:42:47.739Z,6.80
2018-09-28T05:45:15.772Z,6.90
2018-09-28T05:47:43.735Z,7.00
2018-09-28T05:50:11.648Z,6.90
2018-09-28T05:52:39.781Z,6.90
2018-09-28T05:55:07.684Z,6.90
2018-09-28T05:57:35.787Z,6.90
2018-09-28T06:00:09.524Z,6.90
2018-09-28T06:02:42.852Z,6.90
2018-09-28T06:05:16.654Z,7.00
2018-09-28T06:07:44.674Z,7.00
2018-09-28T06:10:12.639Z,7.10
2018-09-28T06:12:40.760Z,7.80
2018-09-28T06:15:08.876Z,8.70
2018-09-28T06:17:36.827Z,9.30
2018-09-28T06:20:05.241Z,9.30
2018-09-28T06:22:33.371Z,9.10
2018-09-28T06:25:01.433Z,9.00
2018-09-28T06:27:29.502Z,10.00
2018-09-28T06:29:57.788Z,11.30
2018-09-28T06:32:25.805Z,12.00
2018-09-28T06:34:53.770Z,12.90
2018-09-28T06:37:21.803Z,13.70
2018-09-28T06:39:49.695Z,14.50
2018-09-28T06:42:17.663Z,14.60
2018-09-28T06:44:45.575Z,14.40
2018-09-28T06:47:13.642Z,13.20
2018-09-28T06:49:41.545Z,11.70
2018-09-28T06:52:09.496Z,10.80
2018-09-28T06:54:37.343Z,10.20
2018-09-28T06:57:05.251Z,9.70
2018-09-28T06:59:33.218Z,9.30
2018-09-28T07:02:01.079Z,9.00
2018-09-28T07:04:28.985Z,8.60
2018-09-28T07:06:56.958Z,8.50
2018-09-28T07:09:25.173Z,8.40
2018-09-28T07:11:53.085Z,8.30
2018-09-28T07:14:21.011Z,8.40
2018-09-28T07:16:49.029Z,8.50
2018-09-28T07:19:16.945Z,8.70
2018-09-28T07:21:44.932Z,8.90
2018-09-28T07:24:12.973Z,9.00
2018-09-28T07:26:40.898Z,9.10
2018-09-28T07:29:08.960Z,9.30
2018-09-28T07:31:36.978Z,9.60
2018-09-28T07:34:04.854Z,10.40
2018-09-28T07:36:33.147Z,10.70
2018-09-28T07:39:01.130Z,10.50
2018-09-28T07:41:29.134Z,10.70
2018-09-28T07:43:57.088Z,10.50
2018-09-28T07:46:25.051Z,10.40
2018-09-28T07:48:53.258Z,10.20
2018-09-28T07:51:21.201Z,10.00
2018-09-28T07:53:49.301Z,9.90
2018-09-28T07:56:17.265Z,10.00
2018-09-28T07:58:45.372Z,9.90
2018-09-28T08:01:13.286Z,9.70
2018-09-28T08:03:41.299Z,9.60
2018-09-28T08:06:09.272Z,9.60
2018-09-28T08:08:37.117Z,9.50
2018-09-28T08:11:05.201Z,9.50
2018-09-28T08:13:33.146Z,9.40
2018-09-28T08:16:01.219Z,9.50
2018-09-28T08:18:29.220Z,9.50
2018-09-28T08:20:57.360Z,9.50
2018-09-28T08:23:25.397Z,9.60
2018-09-28T08:25:53.402Z,9.40
2018-09-28T08:28:21.324Z,9.40
2018-09-28T08:30:49.283Z,9.40
2018-09-28T08:33:17.369Z,9.40
2018-09-28T08:35:45.308Z,9.40
2018-09-28T08:38:13.294Z,9.40
2018-09-28T08:40:41.857Z,9.60
2018-09-28T08:43:10.236Z,9.50
2018-09-28T08:45:38.328Z,9.50
2018-09-28T08:48:06.822Z,9.50
2018-09-28T08:50:34.887Z,9.50
2018-09-28T08:53:02.966Z,9.50
2018-09-28T08:55:31.035Z,9.40
2018-09-28T08:57:59.059Z,9.30
2018-09-28T09:00:27.073Z,9.30
2018-09-28T09:02:55.148Z,9.30
2018-09-28T09:05:23.215Z,9.40
2018-09-28T09:07:51.194Z,9.60
2018-09-28T09:10:19.201Z,9.50
2018-09-28T09:12:47.296Z,9.60
2018-09-28T09:15:15.258Z,9.70
2018-09-28T09:17:43.275Z,9.80
2018-09-28T09:20:11.175Z,9.80
2018-09-28T09:22:39.174Z,9.70
2018-09-28T09:25:07.208Z,9.70
2018-09-28T09:27:35.213Z,9.70
2018-09-28T09:30:03.267Z,9.70
2018-09-28T09:32:31.294Z,9.80
2018-09-28T09:34:59.450Z,9.70
2018-09-28T09:37:27.837Z,9.70
2018-09-28T09:39:56.070Z,9.80
2018-09-28T09:42:24.274Z,10.00
2018-09-28T09:44:52.479Z,10.00
2018-09-28T09:47:20.618Z,10.00
2018-09-28T09:49:48.886Z,10.10
2018-09-28T09:52:17.155Z,10.10
2018-09-28T09:54:46.336Z,10.10
2018-09-28T09:57:14.589Z,10.20
2018-09-28T09:59:43.083Z,10.10
2018-09-28T10:02:16.533Z,10.00
2018-09-28T10:04:44.619Z,9.90
2018-09-28T10:07:12.530Z,9.90
2018-09-28T10:09:40.604Z,10.00
2018-09-28T10:12:08.725Z,10.00
2018-09-28T10:14:36.791Z,10.20
2018-09-28T10:17:05.145Z,10.40
2018-09-28T10:19:33.299Z,10.40
2018-09-28T10:22:01.469Z,10.40
2018-09-28T10:24:29.447Z,10.30
2018-09-28T10:26:57.427Z,10.40
2018-09-28T10:29:25.446Z,10.40
2018-09-28T10:31:53.426Z,10.50
2018-09-28T10:34:21.505Z,10.70
2018-09-28T10:36:49.609Z,10.70
2018-09-28T10:39:17.747Z,10.70
2018-09-28T10:41:45.832Z,10.70
2018-09-28T10:44:13.876Z,10.80
2018-09-28T10:46:42.065Z,10.70
2018-09-28T10:49:10.041Z,10.80
2018-09-28T10:51:38.269Z,10.80
2018-09-28T10:54:06.275Z,10.90
2018-09-28T10:56:34.296Z,10.80
2018-09-28T10:59:02.356Z,10.80
2018-09-28T11:01:30.354Z,10.70
2018-09-28T11:03:58.195Z,10.80
2018-09-28T11:06:26.235Z,10.90
2018-09-28T11:08:54.712Z,11.00
2018-09-28T11:11:22.591Z,11.10
2018-09-28T11:13:50.521Z,11.10
2018-09-28T11:16:18.511Z,11.00
2018-09-28T11:18:46.650Z,10.90
2018-09-28T11:21:14.688Z,10.80
2018-09-28T11:23:42.800Z,10.70
2018-09-28T11:26:10.772Z,10.70
2018-09-28T11:28:38.768Z,10.60
2018-09-28T11:31:06.871Z,10.50
2018-09-28T11:33:34.880Z,10.60
2018-09-28T11:36:02.970Z,10.70
2018-09-28T11:38:31.001Z,10.60
2018-09-28T11:40:59.068Z,10.50
2018-09-28T11:43:26.978Z,10.50
2018-09-28T11:45:54.872Z,10.50
2018-09-28T11:48:22.795Z,10.60
2018-09-28T11:50:50.736Z,10.70
2018-09-28T11:53:18.729Z,10.70
2018-09-28T11:55:46.694Z,10.70
2018-09-28T11:58:14.683Z,10.70
2018-09-28T12:00:42.819Z,10.80
2018-09-28T12:03:10.863Z,10.80
2018-09-28T12:05:38.999Z,10.90
2018-09-28T12:08:07.114Z,11.00
2018-09-28T12:10:35.286Z,11.00
2018-09-28T12:13:03.158Z,10.70
2018-09-28T12:15:31.234Z,10.50
2018-09-28T12:17:59.205Z,10.10
2018-09-28T12:20:27.126Z,9.20
2018-09-28T12:22:55.342Z,8.90
2018-09-28T12:25:23.498Z,8.90
2018-09-28T12:27:51.742Z,9.10
2018-09-28T12:30:19.639Z,9.30
2018-09-28T12:32:47.535Z,9.50
2018-09-28T12:35:15.582Z,9.70
2018-09-28T12:37:43.471Z,9.60
2018-09-28T12:40:11.380Z,9.40
2018-09-28T12:42:39.378Z,9.00
2018-09-28T12:45:07.606Z,8.80
2018-09-28T12:47:35.639Z,8.90
2018-09-28T12:50:03.825Z,8.90
2018-09-28T12:52:31.935Z,9.50
2018-09-28T12:54:59.892Z,10.60
2018-09-28T12:57:27.909Z,11.50
2018-09-28T12:59:55.893Z,12.40
2018-09-28T13:02:24.034Z,13.20
2018-09-28T13:04:52.168Z,13.80
2018-09-28T13:07:20.104Z,14.30
2018-09-28T13:09:48.099Z,14.30
2018-09-28T13:12:16.095Z,14.50
2018-09-28T13:14:44.173Z,14.40
2018-09-28T13:17:12.159Z,14.40
2018-09-28T13:19:40.043Z,14.10
2018-09-28T13:22:07.979Z,13.60
2018-09-28T13:24:36.077Z,13.00
2018-09-28T13:27:04.020Z,12.20
2018-09-28T13:29:31.951Z,11.40
2018-09-28T13:31:59.939Z,10.70
2018-09-28T13:34:27.950Z,10.20
2018-09-28T13:36:55.918Z,9.90
2018-09-28T13:39:23.931Z,9.60
2018-09-28T13:41:51.857Z,9.40
2018-09-28T13:44:19.851Z,9.30
2018-09-28T13:46:47.867Z,9.30
2018-09-28T13:49:15.869Z,9.30
2018-09-28T13:51:44.072Z,9.40
2018-09-28T13:54:12.118Z,9.50
2018-09-28T13:56:40.107Z,9.60
2018-09-28T13:59:08.233Z,9.60
2018-09-28T14:01:36.573Z,9.40
2018-09-28T14:04:04.695Z,9.30
2018-09-28T14:06:32.787Z,9.30
2018-09-28T14:09:00.894Z,9.20
2018-09-28T14:11:28.888Z,8.90
2018-09-28T14:13:57.190Z,8.90
2018-09-28T14:16:25.424Z,9.00
2018-09-28T14:18:53.573Z,8.90
2018-09-28T14:21:21.559Z,9.00
2018-09-28T14:23:49.539Z,9.10
2018-09-28T14:26:17.618Z,9.20
2018-09-28T14:28:45.505Z,9.30
2018-09-28T14:31:13.465Z,9.40
2018-09-28T14:33:41.651Z,9.40
2018-09-28T14:36:09.660Z,9.50
2018-09-28T14:38:37.616Z,9.50
2018-09-28T14:41:06.869Z,9.70
2018-09-28T14:43:34.873Z,9.70
2018-09-28T14:46:03.382Z,9.70
2018-09-28T14:48:31.516Z,9.60
2018-09-28T14:50:59.399Z,9.60
2018-09-28T14:53:27.463Z,9.60
2018-09-28T14:55:55.622Z,9.70
2018-09-28T14:58:23.741Z,9.70
2018-09-28T15:00:51.913Z,9.80
2018-09-28T15:03:20.103Z,9.70
2018-09-28T15:05:48.154Z,9.70
2018-09-28T15:08:16.401Z,9.70
2018-09-28T15:10:44.484Z,9.60
2018-09-28T15:13:12.895Z,9.50
2018-09-28T15:15:41.114Z,9.40
2018-09-28T15:18:09.121Z,9.30
2018-09-28T15:20:37.181Z,9.20
2018-09-28T15:23:05.432Z,9.20
2018-09-28T15:25:33.652Z,9.10
2018-09-28T15:28:01.754Z,9.10
2018-09-28T15:30:29.703Z,9.00
2018-09-28T15:32:57.598Z,9.00
2018-09-28T15:35:25.744Z,9.00
2018-09-28T15:37:53.691Z,9.00
2018-09-28T15:40:21.873Z,9.10
2018-09-28T15:42:49.745Z,9.10
2018-09-28T15:45:17.716Z,9.20
2018-09-28T15:47:45.852Z,9.20
2018-09-28T15:50:13.962Z,9.30
2018-09-28T15:52:42.067Z,9.30
2018-09-28T15:55:10.104Z,9.30
2018-09-28T15:57:38.295Z,9.40
2018-09-28T16:00:07.095Z,9.30
2018-09-28T16:02:35.272Z,9.20
2018-09-28T16:05:04.102Z,9.20
2018-09-28T16:07:32.085Z,9.30
2018-09-28T16:10:00.381Z,9.30
2018-09-28T16:12:28.477Z,9.30
2018-09-28T16:14:56.546Z,9.30
2018-09-28T16:17:24.914Z,9.30
2018-09-28T16:19:53.008Z,9.30
2018-09-28T16:22:21.134Z,9.20
2018-09-28T16:24:49.139Z,9.20
2018-09-28T16:27:17.176Z,9.20
2018-09-28T16:29:45.502Z,9.10
2018-09-28T16:32:14.027Z,9.10
2018-09-28T16:34:42.258Z,9.00
2018-09-28T16:37:10.636Z,9.00
2018-09-28T16:39:38.716Z,8.90
2018-09-28T16:42:06.864Z,8.80
2018-09-28T16:44:34.858Z,8.70
2018-09-28T16:47:02.890Z,8.60
2018-09-28T16:49:31.143Z,8.60
2018-09-28T16:51:59.394Z,8.40
2018-09-28T16:54:27.300Z,8.40
2018-09-28T16:56:55.510Z,8.40
2018-09-28T16:59:23.513Z,8.30
2018-09-28T17:01:51.836Z,8.30
2018-09-28T17:04:19.984Z,8.30
2018-09-28T17:06:48.239Z,8.30
2018-09-28T17:09:16.178Z,8.20
2018-09-28T17:11:44.132Z,8.10
2018-09-28T17:14:12.114Z,8.10
2018-09-28T17:16:40.136Z,8.10
2018-09-28T17:19:08.225Z,8.10
2018-09-28T17:21:36.443Z,8.10
2018-09-28T17:24:04.473Z,8.00
2018-09-28T17:26:32.547Z,8.00
2018-09-28T17:29:00.588Z,8.00
2018-09-28T17:31:28.639Z,7.90
2018-09-28T17:33:56.632Z,7.90
2018-09-28T17:36:24.629Z,7.90
2018-09-28T17:38:52.675Z,8.00
2018-09-28T17:41:20.779Z,8.00
2018-09-28T17:43:48.787Z,7.90
2018-09-28T17:46:16.863Z,7.90
2018-09-28T17:48:44.903Z,7.90
2018-09-28T17:51:13.137Z,7.80
2018-09-28T17:53:41.064Z,7.80
2018-09-28T17:56:09.082Z,7.80
2018-09-28T17:58:37.122Z,7.80
2018-09-28T18:01:05.361Z,7.90
2018-09-28T18:03:33.245Z,7.80
2018-09-28T18:06:01.232Z,7.80
2018-09-28T18:08:29.179Z,7.80
2018-09-28T18:10:57.194Z,7.70
2018-09-28T18:13:25.144Z,7.70
2018-09-28T18:15:53.056Z,7.70
2018-09-28T18:18:21.047Z,7.70
2018-09-28T18:20:49.103Z,7.60
2018-09-28T18:23:17.248Z,7.60
2018-09-28T18:25:45.377Z,7.60
2018-09-28T18:28:13.359Z,7.70
2018-09-28T18:30:41.310Z,7.70
2018-09-28T18:33:09.219Z,7.70
2018-09-28T18:35:37.171Z,7.70
2018-09-28T18:38:05.198Z,7.60
2018-09-28T18:40:33.230Z,7.60
2018-09-28T18:43:01.166Z,7.60
2018-09-28T18:45:29.181Z,7.50
2018-09-28T18:47:57.154Z,7.50
2018-09-28T18:50:25.196Z,7.50
2018-09-28T18:52:53.244Z,7.50
2018-09-28T18:55:21.343Z,7.50
2018-09-28T18:57:49.313Z,7.50
2018-09-28T19:00:17.265Z,7.50
2018-09-28T19:02:45.242Z,7.40
2018-09-28T19:05:13.345Z,7.40
2018-09-28T19:07:41.356Z,7.30
2018-09-28T19:10:10.139Z,7.30
2018-09-28T19:12:38.261Z,7.30
2018-09-28T19:15:06.619Z,7.30
2018-09-28T19:17:34.643Z,7.30
2018-09-28T19:20:02.767Z,7.20
2018-09-28T19:22:30.799Z,7.20
2018-09-28T19:24:59.012Z,7.20
2018-09-28T19:27:27.080Z,7.20
2018-09-28T19:29:55.082Z,7.10
2018-09-28T19:32:23.079Z,7.10
2018-09-28T19:34:51.071Z,7.10
2018-09-28T19:37:19.167Z,7.10
2018-09-28T19:39:47.181Z,7.10
2018-09-28T19:42:16.456Z,7.10
2018-09-28T19:44:44.516Z,7.00
2018-09-28T19:47:12.528Z,7.00
2018-09-28T19:49:40.572Z,7.00
2018-09-28T19:52:08.550Z,7.00
2018-09-28T19:54:36.612Z,7.00
2018-09-28T19:57:04.514Z,7.00
2018-09-28T19:59:32.452Z,7.00
2018-09-28T20:02:00.443Z,7.00
2018-09-28T20:04:28.539Z,6.90
2018-09-28T20:06:56.566Z,6.90
2018-09-28T20:09:24.599Z,6.90
2018-09-28T20:11:52.682Z,6.90
2018-09-28T20:14:20.778Z,6.90
2018-09-28T20:16:48.839Z,6.90
2018-09-28T20:19:17.158Z,6.90
2018-09-28T20:21:45.408Z,6.90
2018-09-28T20:24:13.534Z,6.80
2018-09-28T20:26:41.594Z,6.80
2018-09-28T20:29:09.703Z,6.80
2018-09-28T20:31:37.613Z,6.70
2018-09-28T20:34:05.871Z,6.70
2018-09-28T20:36:34.042Z,6.70
2018-09-28T20:39:02.317Z,6.70
2018-09-28T20:41:30.415Z,6.70
2018-09-28T20:43:58.320Z,6.70
2018-09-28T20:46:26.184Z,6.60
2018-09-28T20:48:54.271Z,6.60
2018-09-28T20:51:22.347Z,6.60
2018-09-28T20:53:50.278Z,6.60
2018-09-28T20:56:18.592Z,6.60
2018-09-28T20:58:46.594Z,6.60
2018-09-28T21:01:14.583Z,6.60
2018-09-28T21:03:42.847Z,6.50
2018-09-28T21:06:10.938Z,6.50
2018-09-28T21:08:38.935Z,6.50
2018-09-28T21:11:06.935Z,6.50
2018-09-28T21:13:34.877Z,6.50
2018-09-28T21:16:02.968Z,6.40
2018-09-28T21:18:30.935Z,6.40
2018-09-28T21:20:59.030Z,6.40
2018-09-28T21:23:26.973Z,6.40
2018-09-28T21:25:54.921Z,6.40
2018-09-28T21:28:22.808Z,6.30
2018-09-28T21:30:50.667Z,6.30
2018-09-28T21:33:18.792Z,6.30
2018-09-28T21:35:46.770Z,6.30
2018-09-28T21:38:14.721Z,6.30
2018-09-28T21:40:42.700Z,6.20
2018-09-28T21:43:10.594Z,6.20
2018-09-28T21:45:38.542Z,6.20
2018-09-28T21:48:06.637Z,6.10
2018-09-28T21:50:34.582Z,6.10
2018-09-28T21:53:02.660Z,6.10
2018-09-28T21:55:30.717Z,6.00
2018-09-28T21:57:58.677Z,6.00
2018-09-28T22:00:26.689Z,6.00
2018-09-28T22:02:54.857Z,5.90
2018-09-28T22:05:22.803Z,5.90
2018-09-28T22:07:50.720Z,5.90
2018-09-28T22:10:18.674Z,5.80
2018-09-28T22:12:46.595Z,5.80
2018-09-28T22:15:14.498Z,5.80
2018-09-28T22:17:42.435Z,5.80
2018-09-28T22:20:11.332Z,5.80
2018-09-28T22:22:39.325Z,5.70
2018-09-28T22:25:07.489Z,5.70
2018-09-28T22:27:35.449Z,5.60
2018-09-28T22:30:03.477Z,5.60
2018-09-28T22:32:31.404Z,5.50
2018-09-28T22:34:59.551Z,5.50
2018-09-28T22:37:27.556Z,5.50
2018-09-28T22:39:55.580Z,5.40
2018-09-28T22:42:23.693Z,5.40
2018-09-28T22:44:51.655Z,5.40
2018-09-28T22:47:19.727Z,5.40
2018-09-28T22:49:47.705Z,5.40
2018-09-28T22:52:15.681Z,5.40
2018-09-28T22:54:43.602Z,5.40
2018-09-28T22:57:11.533Z,5.30
2018-09-28T22:59:40.387Z,5.30
2018-09-28T23:02:08.317Z,5.30
2018-09-28T23:04:36.556Z,5.30
2018-09-28T23:07:04.560Z,5.20
2018-09-28T23:09:32.452Z,5.20
2018-09-28T23:12:00.422Z,5.20
2018-09-28T23:14:28.477Z,5.20
2018-09-28T23:16:56.362Z,5.20
2018-09-28T23:19:24.428Z,5.20
2018-09-28T23:21:52.462Z,5.10
2018-09-28T23:24:20.793Z,5.10
2018-09-28T23:26:48.767Z,5.10
2018-09-28T23:29:16.751Z,5.10
2018-09-28T23:31:44.689Z,5.10
2018-09-28T23:34:12.858Z,5.10
2018-09-28T23:36:40.844Z,5.00
2018-09-28T23:39:09.866Z,5.00
2018-09-28T23:41:38.349Z,5.00
2018-09-28T23:44:07.139Z,5.00
2018-09-28T23:46:35.159Z,5.00
2018-09-28T23:49:03.184Z,4.90
2018-09-28T23:51:31.223Z,4.90
2018-09-28T23:53:59.241Z,4.90
2018-09-28T23:56:27.347Z,4.90
2018-09-28T23:58:55.454Z,4.80
